Time;durP1;ratioP1;P1;durP2;ratioP2;P2;SDS_P1;SDS_P2;PMS_P1;PMS_P2;Temp;Humidity;BMP_temperature;BMP_pressure;BME280_temperature;BME280_humidity;BME280_pressure;Samples;Min_cycle;Max_cycle;Signal;HPM_P1;HPM_P2
2021/11/30 00:02:20;;;;;;;10.97;8.07;;;;;;;4.07;68.61;99199.41;6157596;22;97432;-75
2021/11/30 00:04:45;;;;;;;12.73;8.40;;;;;;;4.07;68.82;99202.00;6183571;22;97330;-75
2021/11/30 00:07:11;;;;;;;12.30;8.13;;;;;;;4.07;68.38;99203.72;6184771;22;96468;-75
2021/11/30 00:12:09;;;;;;;10.87;7.17;;;;;;;4.05;68.54;99189.94;6157679;22;99519;-75
2021/11/30 00:14:38;;;;;;;10.83;7.20;;;;;;;4.01;68.71;99194.31;6132962;22;99808;-75
2021/11/30 00:17:04;;;;;;;11.77;7.77;;;;;;;4.08;68.58;99197.66;6182928;22;96996;-75
2021/11/30 00:19:30;;;;;;;8.97;6.70;;;;;;;4.06;69.10;99209.81;6158490;22;97330;-75
2021/11/30 00:21:56;;;;;;;10.33;7.03;;;;;;;4.05;68.81;99210.72;6182174;22;97289;-75
2021/11/30 00:24:23;;;;;;;10.20;7.17;;;;;;;4.08;68.42;99205.44;6183660;22;96974;-75
2021/11/30 00:26:49;;;;;;;11.03;7.67;;;;;;;4.05;68.47;99208.97;6132664;22;96515;-75
2021/11/30 00:29:15;;;;;;;8.63;6.47;;;;;;;4.03;68.79;99207.28;6133465;22;97710;-75
2021/11/30 00:31:41;;;;;;;10.77;7.43;;;;;;;4.04;68.54;99211.59;6182369;22;98017;-75
2021/11/30 00:34:06;;;;;;;12.30;7.93;;;;;;;4.05;68.48;99221.09;6183769;22;97051;-75
2021/11/30 00:36:32;;;;;;;10.00;7.60;;;;;;;4.05;68.60;99227.13;6182954;22;96824;-75
2021/11/30 00:38:58;;;;;;;13.17;7.60;;;;;;;4.06;68.32;99226.25;6184253;22;96853;-75
2021/11/30 00:41:23;;;;;;;12.27;7.90;;;;;;;4.11;68.22;99220.09;6182006;22;97852;-75
2021/11/30 00:43:51;;;;;;;11.10;7.70;;;;;;;4.06;68.11;99223.63;6156927;22;99908;-75
2021/11/30 00:46:20;;;;;;;9.77;7.07;;;;;;;4.07;68.19;99227.97;6182630;22;96544;-75
2021/11/30 00:48:46;;;;;;;12.10;7.73;;;;;;;4.06;68.03;99215.84;6183108;22;96493;-74
2021/11/30 00:51:17;;;;;;;10.57;7.33;;;;;;;4.08;68.13;99226.22;6183206;22;97478;-75
2021/11/30 00:53:44;;;;;;;10.00;6.68;;;;;;;4.12;67.78;99216.59;6182910;22;97036;-75
2021/11/30 00:56:10;;;;;;;10.30;6.93;;;;;;;4.11;67.75;99220.94;6183453;22;96644;-75
2021/11/30 00:58:36;;;;;;;13.93;7.00;;;;;;;4.08;67.81;99215.81;6183069;22;96959;-75
2021/11/30 01:01:03;;;;;;;8.80;6.63;;;;;;;4.15;67.57;99227.75;6182649;22;97315;-75
2021/11/30 01:03:28;;;;;;;9.80;6.10;;;;;;;4.13;67.59;99224.38;6131342;22;99568;-75
2021/11/30 01:05:54;;;;;;;8.13;5.60;;;;;;;4.11;67.33;99230.47;6182612;22;96588;-74
2021/11/30 01:08:19;;;;;;;8.33;5.80;;;;;;;4.12;67.23;99227.81;6156963;22;96804;-75
2021/11/30 01:10:45;;;;;;;9.67;5.10;;;;;;;4.06;67.25;99225.38;6182894;22;97139;-75
2021/11/30 01:13:10;;;;;;;8.73;5.70;;;;;;;4.07;67.13;99232.28;6184004;22;97795;-75
2021/11/30 01:15:38;;;;;;;11.20;5.27;;;;;;;4.06;67.33;99236.63;6183712;22;96567;-75
2021/11/30 01:18:03;;;;;;;9.20;5.47;;;;;;;4.10;66.65;99242.59;6184729;22;97092;-75
2021/11/30 01:20:29;;;;;;;8.00;5.93;;;;;;;4.12;67.08;99234.78;6184575;22;97197;-75
2021/11/30 01:22:56;;;;;;;7.90;5.43;;;;;;;4.06;66.80;99244.41;6156678;22;97641;-75
2021/11/30 01:25:22;;;;;;;8.17;4.90;;;;;;;4.05;66.62;99247.06;6157394;22;96536;-75
2021/11/30 01:27:47;;;;;;;5.87;4.53;;;;;;;4.04;67.07;99247.94;6181355;22;96869;-75
2021/11/30 01:30:14;;;;;;;6.30;4.70;;;;;;;4.04;66.69;99243.63;6181934;22;97472;-75
2021/11/30 01:32:42;;;;;;;7.37;5.20;;;;;;;3.99;67.24;99248.06;6181168;22;97199;-74
2021/11/30 01:35:08;;;;;;;7.77;4.93;;;;;;;4.04;67.02;99247.94;6182807;22;96684;-75
2021/11/30 01:37:34;;;;;;;8.10;5.03;;;;;;;4.02;67.06;99244.53;6156549;22;96528;-75
2021/11/30 01:40:00;;;;;;;8.77;5.40;;;;;;;4.04;66.90;99253.13;6157143;22;97128;-75
2021/11/30 01:42:26;;;;;;;7.47;5.20;;;;;;;4.05;66.98;99247.06;6182034;22;97295;-75
2021/11/30 01:44:57;;;;;;;7.50;5.80;;;;;;;4.04;66.63;99261.81;6182361;22;96674;-75
2021/11/30 01:49:58;;;;;;;8.00;5.67;;;;;;;4.09;66.77;99256.47;6182205;22;97614;-75
2021/11/30 01:52:24;;;;;;;9.07;5.10;;;;;;;4.13;66.42;99265.03;6180539;22;97350;-75
2021/11/30 01:54:51;;;;;;;9.67;5.80;;;;;;;4.06;66.54;99264.34;6155193;22;96615;-75
2021/11/30 01:57:20;;;;;;;6.93;5.20;;;;;;;4.09;66.30;99261.69;6131486;22;96844;-75
2021/11/30 01:59:47;;;;;;;7.10;5.43;;;;;;;4.08;66.48;99272.97;6154575;22;100244;-75
2021/11/30 02:02:13;;;;;;;7.70;5.77;;;;;;;4.05;66.40;99260.91;6181296;22;97029;-75
2021/11/30 02:04:39;;;;;;;9.97;6.23;;;;;;;4.00;66.23;99265.34;6181797;22;96807;-75
2021/11/30 02:07:07;;;;;;;6.47;4.77;;;;;;;4.03;66.44;99260.06;6155375;22;97328;-75
2021/11/30 02:09:34;;;;;;;7.97;5.20;;;;;;;4.03;66.43;99267.03;6180226;22;97608;-75
2021/11/30 02:11:59;;;;;;;8.23;5.77;;;;;;;4.00;66.21;99261.91;6182087;22;97071;-75
2021/11/30 02:14:25;;;;;;;8.17;5.10;;;;;;;4.00;66.33;99267.09;6182867;22;96889;-75
2021/11/30 02:16:51;;;;;;;7.97;5.27;;;;;;;4.00;66.62;99267.09;6156941;22;96833;-75
2021/11/30 02:19:17;;;;;;;8.30;4.80;;;;;;;4.03;66.70;99265.28;6182035;22;97720;-75
2021/11/30 02:21:42;;;;;;;8.43;5.43;;;;;;;4.03;66.23;99254.88;6131281;22;99910;-75
2021/11/30 02:24:09;;;;;;;6.67;5.17;;;;;;;4.03;66.49;99248.84;6133123;22;96504;-75
2021/11/30 02:26:37;;;;;;;6.43;4.90;;;;;;;4.02;66.41;99236.75;6157459;22;96458;-75
2021/11/30 02:29:07;;;;;;;11.10;5.60;;;;;;;3.99;65.95;99247.22;6181160;22;99455;-75
2021/11/30 02:31:41;;;;;;;9.53;5.70;;;;;;;4.02;66.09;99253.19;6157035;22;97394;-75
2021/11/30 02:34:07;;;;;;;13.03;6.83;;;;;;;4.00;66.02;99254.13;6133748;22;96715;-75
2021/11/30 02:36:49;;;;;;;9.67;5.43;;;;;;;4.00;65.92;99257.56;6158879;22;97123;-75
2021/11/30 02:39:17;;;;;;;9.50;5.35;;;;;;;3.95;66.08;99243.81;6184316;22;97883;-75
2021/11/30 02:41:44;;;;;;;7.33;5.47;;;;;;;3.93;65.94;99239.59;6185147;22;97543;-75
2021/11/30 02:44:14;;;;;;;7.43;4.63;;;;;;;3.95;65.91;99238.63;6133364;22;96676;-75
2021/11/30 02:46:51;;;;;;;7.07;5.13;;;;;;;3.94;65.57;99242.13;6158302;22;96763;-75
2021/11/30 02:49:21;;;;;;;6.77;4.83;;;;;;;3.92;65.94;99235.25;6182563;22;97744;-75
2021/11/30 02:51:51;;;;;;;8.57;5.30;;;;;;;3.93;65.97;99240.44;6182420;22;97991;-75
2021/11/30 02:54:19;;;;;;;6.70;5.00;;;;;;;3.90;66.02;99237.03;6184075;22;96608;-75
2021/11/30 02:56:56;;;;;;;7.17;4.60;;;;;;;3.89;65.73;99233.59;6184161;22;97588;-75
2021/11/30 02:59:24;;;;;;;7.63;5.50;;;;;;;3.92;65.80;99240.44;6183403;22;97576;-75
2021/11/30 03:02:04;;;;;;;7.07;4.80;;;;;;;3.91;66.00;99237.00;6183294;22;97169;-75
2021/11/30 03:04:30;;;;;;;7.10;5.03;;;;;;;3.93;66.04;99234.38;6184078;22;97270;-75
2021/11/30 03:06:57;;;;;;;6.37;4.87;;;;;;;3.92;66.06;99230.06;6157988;22;97187;-75
2021/11/30 03:09:23;;;;;;;6.63;5.17;;;;;;;3.95;66.02;99233.44;6181575;22;100399;-75
2021/11/30 03:11:49;;;;;;;5.93;5.00;;;;;;;3.97;66.27;99234.25;6182607;22;100378;-75
2021/11/30 03:14:15;;;;;;;8.83;5.43;;;;;;;3.96;65.71;99234.31;6159217;22;96956;-75
2021/11/30 03:16:42;;;;;;;10.40;6.10;;;;;;;3.95;65.99;99225.66;6183815;22;96791;-75
2021/11/30 03:19:07;;;;;;;9.43;6.03;;;;;;;3.96;65.88;99226.53;6182929;22;97506;-75
2021/11/30 03:21:33;;;;;;;7.67;5.87;;;;;;;3.95;66.07;99217.84;6156944;22;99559;-75
2021/11/30 03:23:59;;;;;;;6.87;5.27;;;;;;;3.95;66.25;99217.00;6180757;22;96824;-75
2021/11/30 03:26:25;;;;;;;8.90;5.77;;;;;;;3.97;66.20;99217.84;6182302;22;96721;-75
2021/11/30 03:28:51;;;;;;;7.67;6.00;;;;;;;3.92;66.57;99215.34;6128102;22;100046;-75
2021/11/30 03:33:59;;;;;;;8.27;5.93;;;;;;;3.97;66.16;99212.63;6180127;22;96578;-75
2021/11/30 03:36:25;;;;;;;7.63;5.20;;;;;;;3.99;66.38;99213.47;6179854;22;96623;-75
2021/11/30 03:38:51;;;;;;;10.27;6.30;;;;;;;3.98;66.38;99206.53;6179891;22;97725;-75
2021/11/30 03:41:16;;;;;;;8.37;6.27;;;;;;;4.01;66.39;99214.25;6129624;22;100284;-75
2021/11/30 03:43:42;;;;;;;6.73;6.00;;;;;;;4.01;66.47;99215.09;6155301;22;96568;-75
2021/11/30 03:46:08;;;;;;;8.53;6.60;;;;;;;4.01;66.37;99211.66;6180082;22;96881;-75
2021/11/30 03:48:33;;;;;;;7.90;6.60;;;;;;;4.03;66.50;99215.94;6179949;22;97209;-75
2021/11/30 03:50:59;;;;;;;9.27;6.70;;;;;;;4.03;66.70;99215.09;6180470;22;99867;-75
2021/11/30 03:53:25;;;;;;;9.97;6.87;;;;;;;4.05;66.65;99215.91;6180326;22;96612;-75
2021/11/30 03:55:51;;;;;;;10.13;6.93;;;;;;;4.03;66.70;99215.09;6180883;22;96829;-75
2021/11/30 03:58:16;;;;;;;10.60;6.90;;;;;;;4.03;66.79;99208.13;6153775;22;97422;-75
2021/11/30 04:00:43;;;;;;;10.00;6.63;;;;;;;4.04;66.95;99215.06;6155550;22;97249;-75
2021/11/30 04:03:09;;;;;;;10.63;6.60;;;;;;;4.02;67.13;99211.63;6154613;22;97117;-75
2021/11/30 04:05:35;;;;;;;9.37;6.77;;;;;;;4.07;67.13;99211.50;6180582;22;96713;-75
2021/11/30 04:08:00;;;;;;;8.37;6.23;;;;;;;4.07;66.62;99211.50;6128811;22;100518;-75
2021/11/30 04:10:26;;;;;;;10.20;6.63;;;;;;;4.05;66.88;99213.31;6155091;22;100064;-75
2021/11/30 04:12:52;;;;;;;9.97;6.67;;;;;;;4.05;67.58;99213.31;6154771;22;96787;-75
2021/11/30 04:15:18;;;;;;;10.80;7.50;;;;;;;4.05;67.40;99213.31;6180435;22;97126;-75
2021/11/30 04:17:44;;;;;;;12.90;8.20;;;;;;;4.00;67.55;99210.81;6154677;22;97423;-75
2021/11/30 04:20:11;;;;;;;8.93;7.47;;;;;;;4.05;67.44;99210.72;6129512;22;99166;-75
2021/11/30 04:22:38;;;;;;;10.23;7.10;;;;;;;4.05;67.66;99208.13;6154262;22;96643;-75
2021/11/30 04:25:05;;;;;;;9.07;6.57;;;;;;;4.04;67.63;99201.19;6180499;22;96641;-75
2021/11/30 04:27:31;;;;;;;7.70;6.00;;;;;;;4.05;67.58;99197.72;6153882;22;100574;-75
2021/11/30 04:29:57;;;;;;;7.60;5.70;;;;;;;4.04;67.80;99203.78;6180221;22;96979;-75
2021/11/30 04:32:23;;;;;;;8.43;5.87;;;;;;;4.02;67.54;99201.25;6154979;22;96973;-75
2021/11/30 04:34:49;;;;;;;7.37;5.03;;;;;;;4.00;67.69;99199.56;6154767;22;96903;-75
2021/11/30 04:37:14;;;;;;;6.10;4.70;;;;;;;4.05;67.94;99195.13;6154455;22;97245;-75
2021/11/30 04:39:40;;;;;;;7.30;5.17;;;;;;;4.01;68.19;99196.06;6155238;22;99876;-75
2021/11/30 04:42:05;;;;;;;5.07;4.20;;;;;;;4.02;68.16;99190.84;6179878;22;96757;-75
2021/11/30 04:44:34;;;;;;;6.53;4.60;;;;;;;4.03;68.20;99202.09;6182219;22;96673;-75
2021/11/30 04:47:04;;;;;;;4.97;4.27;;;;;;;4.02;68.07;99200.41;6177981;22;97458;-75
2021/11/30 04:52:03;;;;;;;5.90;4.20;;;;;;;4.02;68.22;99190.00;6181342;22;97629;-75
2021/11/30 04:54:28;;;;;;;6.40;4.57;;;;;;;4.03;68.21;99189.09;6155799;22;97419;-75
2021/11/30 04:56:54;;;;;;;6.43;4.47;;;;;;;4.04;68.22;99188.22;6153945;22;100676;-75
2021/11/30 04:59:21;;;;;;;7.83;5.73;;;;;;;4.04;68.00;99190.81;6128795;22;100763;-75
2021/11/30 05:01:48;;;;;;;6.97;5.20;;;;;;;4.02;68.25;99182.22;6154412;22;96561;-75
2021/11/30 05:04:14;;;;;;;7.47;6.43;;;;;;;4.03;68.21;99187.34;6129895;22;96720;-75
2021/11/30 05:06:40;;;;;;;8.63;6.30;;;;;;;4.00;68.41;99178.81;6179276;22;97296;-75
2021/11/30 05:09:06;;;;;;;11.87;7.63;;;;;;;4.02;68.57;99177.03;6179219;22;97250;-75
2021/11/30 05:11:32;;;;;;;7.80;6.40;;;;;;;4.00;68.39;99179.66;6153580;22;96865;-75
2021/11/30 05:13:58;;;;;;;7.13;5.90;;;;;;;4.00;68.01;99181.41;6180014;22;96662;-75
2021/11/30 05:16:23;;;;;;;8.60;5.73;;;;;;;3.94;68.36;99174.63;6126444;22;100708;-74
2021/11/30 05:18:49;;;;;;;8.00;5.93;;;;;;;3.98;68.62;99167.59;6179487;22;97284;-75
2021/11/30 05:21:15;;;;;;;7.43;5.63;;;;;;;3.94;68.28;99161.63;6129808;22;97005;-75
2021/11/30 05:23:41;;;;;;;8.53;5.33;;;;;;;3.92;68.50;99163.41;6205240;22;96945;-75
2021/11/30 05:26:08;;;;;;;9.37;5.60;;;;;;;3.91;68.40;99155.66;6129054;22;100503;-75
2021/11/30 05:28:35;;;;;;;10.63;6.43;;;;;;;3.98;68.41;99162.41;6179466;22;96979;-75
2021/11/30 05:31:04;;;;;;;8.53;6.47;;;;;;;4.00;68.20;99166.66;6154319;22;97093;-75
2021/11/30 05:33:31;;;;;;;9.73;6.60;;;;;;;3.97;68.41;99164.16;6178894;22;97420;-75
2021/11/30 05:35:57;;;;;;;9.83;6.83;;;;;;;4.00;68.46;99158.88;6179371;22;97234;-75
2021/11/30 05:38:23;;;;;;;11.03;6.97;;;;;;;3.97;68.52;99151.16;6154083;22;97337;-75
2021/11/30 05:40:49;;;;;;;11.50;6.97;;;;;;;4.02;68.14;99153.66;6181492;22;96494;-75
2021/11/30 05:43:15;;;;;;;8.90;6.57;;;;;;;3.99;68.12;99157.19;6179744;22;96618;-76
2021/11/30 05:45:42;;;;;;;9.07;6.87;;;;;;;4.02;68.27;99151.06;6154541;22;97907;-75
2021/11/30 05:48:07;;;;;;;11.53;7.83;;;;;;;3.96;68.14;99138.25;6126844;22;99333;-75
2021/11/30 05:50:33;;;;;;;11.83;8.50;;;;;;;3.99;68.00;99144.19;6181702;22;96446;-75
2021/11/30 05:52:59;;;;;;;18.43;11.20;;;;;;;3.97;68.10;99138.19;6180130;22;96639;-75
2021/11/30 05:55:25;;;;;;;16.17;10.80;;;;;;;4.01;67.87;99139.78;6154711;22;97847;-75
2021/11/30 05:57:50;;;;;;;12.80;9.10;;;;;;;4.07;67.71;99137.06;6178884;22;97328;-75
2021/11/30 06:00:17;;;;;;;10.40;8.00;;;;;;;4.05;67.43;99141.44;6181147;22;96551;-75
2021/11/30 06:03:08;;;;;;;10.27;8.07;;;;;;;4.05;67.33;99125.00;6179689;22;96846;-75
2021/11/30 06:05:34;;;;;;;11.47;8.10;;;;;;;3.97;67.27;99113.97;6180236;22;97408;-75
2021/11/30 06:08:03;;;;;;;11.43;7.97;;;;;;;3.96;67.31;99107.94;6178231;22;97152;-75
2021/11/30 06:10:29;;;;;;;11.57;8.80;;;;;;;3.97;66.95;99100.97;6155188;22;96544;-75
2021/11/30 06:12:54;;;;;;;13.80;8.70;;;;;;;3.99;66.72;99088.81;6179405;22;96771;-75
2021/11/30 06:15:21;;;;;;;11.23;8.60;;;;;;;3.92;67.07;99088.09;6154509;22;100519;-75
2021/11/30 06:17:47;;;;;;;14.23;8.87;;;;;;;3.99;66.57;99100.06;6153294;22;99615;-75
2021/11/30 06:20:13;;;;;;;11.87;8.33;;;;;;;3.88;66.73;99096.88;6178945;22;96868;-75
2021/11/30 06:22:39;;;;;;;11.57;9.50;;;;;;;3.91;66.56;99101.16;6179526;22;96502;-75
2021/11/30 06:25:06;;;;;;;12.00;8.90;;;;;;;3.95;66.54;99098.41;6153157;22;97513;-75
2021/11/30 06:27:32;;;;;;;11.00;9.00;;;;;;;3.85;66.31;99090.03;6178735;22;97310;-75
2021/11/30 06:29:57;;;;;;;12.40;9.70;;;;;;;3.88;66.36;99089.09;6179716;22;96573;-74
2021/11/30 06:32:23;;;;;;;15.40;9.67;;;;;;;3.88;66.51;99086.50;6179100;22;96671;-75
2021/11/30 06:34:49;;;;;;;13.23;9.70;;;;;;;3.97;66.34;99085.41;6181028;22;97421;-75
2021/11/30 06:37:15;;;;;;;14.37;9.83;;;;;;;3.99;66.18;99083.63;6178171;22;100163;-75
2021/11/30 06:39:40;;;;;;;16.27;10.30;;;;;;;3.93;66.31;99088.97;6180110;22;97084;-75
2021/11/30 06:42:07;;;;;;;17.03;10.57;;;;;;;3.96;65.99;99084.56;6154184;22;96652;-75
2021/11/30 06:44:34;;;;;;;15.50;9.17;;;;;;;3.75;66.54;99075.59;6179097;22;97566;-75
2021/11/30 06:47:00;;;;;;;15.50;10.97;;;;;;;3.76;66.31;99077.28;6174129;22;97046;-75
2021/11/30 06:49:26;;;;;;;15.70;11.10;;;;;;;3.81;66.22;99071.97;6152737;22;96971;-75
2021/11/30 06:51:52;;;;;;;19.73;11.47;;;;;;;3.78;66.31;99070.31;6153300;22;96869;-75
2021/11/30 06:54:17;;;;;;;19.47;12.03;;;;;;;3.83;66.03;99059.78;6178551;22;97828;-75
2021/11/30 06:56:43;;;;;;;19.57;11.10;;;;;;;3.88;65.91;99057.94;6127926;22;100494;-75
2021/11/30 06:59:08;;;;;;;16.57;11.07;;;;;;;3.95;65.82;99059.47;6178753;22;97712;-75
2021/11/30 07:01:35;;;;;;;14.60;9.43;;;;;;;3.94;65.25;99054.31;6149564;22;96616;-75
2021/11/30 07:04:02;;;;;;;14.77;9.07;;;;;;;3.95;65.30;99043.88;6176987;22;97414;-75
2021/11/30 07:06:58;;;;;;;12.23;8.20;;;;;;;3.91;65.41;99037.09;6177750;22;100400;-75
2021/11/30 07:12:07;;;;;;;10.43;7.40;;;;;;;4.05;64.33;99021.97;6154299;22;96493;-75
2021/11/30 07:14:32;;;;;;;16.77;8.67;;;;;;;4.00;64.83;99034.22;6177785;22;97505;-75
2021/11/30 07:16:59;;;;;;;15.03;9.17;;;;;;;3.95;64.98;99019.66;6151519;22;96961;-75
2021/11/30 07:19:24;;;;;;;13.83;9.63;;;;;;;3.76;65.99;99024.53;6179065;22;96893;-75
2021/11/30 07:21:50;;;;;;;14.63;9.50;;;;;;;3.77;65.67;99016.69;6154214;22;96659;-75
2021/11/30 07:24:15;;;;;;;19.53;9.60;;;;;;;3.62;65.60;99007.56;6180939;22;97201;-75
2021/11/30 07:26:41;;;;;;;16.80;10.60;;;;;;;3.58;65.85;99008.56;6179087;22;100438;-75
2021/11/30 07:29:07;;;;;;;12.93;9.10;;;;;;;3.62;66.07;98998.94;6179454;22;96605;-75
2021/11/30 07:31:34;;;;;;;16.30;9.30;;;;;;;3.68;64.96;98990.13;6152616;22;97061;-75
2021/11/30 07:34:00;;;;;;;13.63;9.73;;;;;;;3.66;65.26;98990.16;6177800;22;100087;-74
2021/11/30 07:36:26;;;;;;;13.77;9.27;;;;;;;3.71;64.82;98987.44;6127368;22;100077;-75
2021/11/30 07:38:51;;;;;;;16.33;10.27;;;;;;;3.73;64.51;98977.88;6179259;22;97018;-75
2021/11/30 07:41:18;;;;;;;15.37;10.80;;;;;;;3.72;64.62;98976.16;6153135;22;96767;-75
2021/11/30 07:43:44;;;;;;;13.40;9.37;;;;;;;3.78;64.95;98976.00;6178465;22;98047;-74
2021/11/30 07:46:09;;;;;;;14.03;10.57;;;;;;;3.83;64.11;98967.19;6152401;22;96505;-75
2021/11/30 07:48:35;;;;;;;19.40;11.93;;;;;;;3.66;64.69;98960.75;6177380;22;97142;-75
2021/11/30 07:51:02;;;;;;;15.30;10.80;;;;;;;3.60;65.08;98961.78;6150353;22;97123;-74
2021/11/30 07:53:28;;;;;;;13.87;9.80;;;;;;;3.59;64.58;98963.53;6154569;22;97344;-75
2021/11/30 07:55:54;;;;;;;13.37;9.17;;;;;;;3.56;64.71;98961.03;6153570;22;99869;-74
2021/11/30 07:58:20;;;;;;;16.20;10.70;;;;;;;3.53;65.16;98955.91;6178339;22;96704;-74
2021/11/30 08:00:47;;;;;;;13.77;9.30;;;;;;;3.54;65.21;98944.63;6129212;22;97106;-75
2021/11/30 08:03:12;;;;;;;9.90;7.83;;;;;;;3.62;64.51;98941.84;6176771;22;97231;-74
2021/11/30 08:05:38;;;;;;;13.03;8.53;;;;;;;3.68;64.70;98935.63;6204654;22;97622;-75
2021/11/30 08:08:04;;;;;;;11.17;8.73;;;;;;;3.57;64.90;98934.16;6153671;22;96502;-74
2021/11/30 08:10:29;;;;;;;13.90;8.13;;;;;;;3.47;65.38;98924.94;6129896;22;97123;-78
2021/11/30 08:12:56;;;;;;;17.97;8.13;;;;;;;3.51;64.49;98934.34;6153421;22;97577;-75
2021/11/30 08:15:22;;;;;;;14.27;8.27;;;;;;;3.40;64.89;98926.88;6154895;22;97206;-76
2021/11/30 08:17:47;;;;;;;14.50;8.63;;;;;;;3.43;65.47;98915.53;6181002;22;96573;-76
2021/11/30 08:20:14;;;;;;;14.87;8.43;;;;;;;3.54;64.92;98913.50;6154869;22;96684;-75
2021/11/30 08:22:41;;;;;;;14.77;7.77;;;;;;;3.65;64.72;98899.38;6129016;22;100062;-75
2021/11/30 08:25:11;;;;;;;12.00;8.13;;;;;;;3.74;64.17;98897.38;6153366;22;96940;-76
2021/11/30 08:27:36;;;;;;;12.60;8.20;;;;;;;3.68;64.26;98894.09;6121615;22;97319;-75
2021/11/30 08:30:04;;;;;;;12.93;6.03;;;;;;;3.75;63.45;98880.03;6201647;22;96633;-75
2021/11/30 08:32:30;;;;;;;11.27;6.13;;;;;;;3.77;62.57;98875.66;6127040;22;99340;-75
2021/11/30 08:34:57;;;;;;;9.97;6.00;;;;;;;3.79;62.63;98873.88;6155141;22;97119;-76
2021/11/30 08:37:24;;;;;;;9.50;5.73;;;;;;;3.79;61.92;98866.94;6126386;22;97388;-76
2021/11/30 08:39:52;;;;;;;8.60;4.83;;;;;;;3.84;61.70;98853.84;6180198;22;96720;-75
2021/11/30 08:42:19;;;;;;;9.13;5.17;;;;;;;3.85;61.06;98861.56;6178963;22;97078;-76
2021/11/30 08:44:46;;;;;;;7.90;4.73;;;;;;;3.90;60.96;98852.78;6179914;22;97765;-76
2021/11/30 08:47:14;;;;;;;8.17;5.13;;;;;;;3.91;61.64;98860.53;6152524;22;96903;-76
2021/11/30 08:49:40;;;;;;;7.00;4.67;;;;;;;3.92;61.54;98854.44;6179457;22;96768;-75
2021/11/30 08:52:10;;;;;;;6.60;4.80;;;;;;;3.98;60.84;98848.22;6178770;22;97698;-76
2021/11/30 08:54:36;;;;;;;6.87;4.50;;;;;;;4.06;60.17;98851.44;6153944;22;99174;-77
2021/11/30 08:57:02;;;;;;;11.83;5.93;;;;;;;3.92;60.57;98840.59;6152721;22;96808;-75
2021/11/30 08:59:28;;;;;;;7.03;5.00;;;;;;;3.91;60.93;98829.38;6153437;22;96927;-76
2021/11/30 09:01:54;;;;;;;7.53;5.10;;;;;;;3.92;60.77;98827.63;6179580;22;97205;-76
2021/11/30 09:04:20;;;;;;;7.53;5.37;;;;;;;3.94;60.85;98823.25;6120791;22;99974;-75
2021/11/30 09:06:45;;;;;;;7.97;4.90;;;;;;;3.92;60.88;98806.84;6172377;22;97645;-75
2021/11/30 09:09:11;;;;;;;7.57;5.23;;;;;;;3.90;61.31;98801.72;6176957;22;96794;-76
2021/11/30 09:11:38;;;;;;;10.57;6.23;;;;;;;3.97;60.73;98792.84;6150767;22;99244;-76
2021/11/30 09:14:05;;;;;;;8.57;5.83;;;;;;;4.03;61.16;98791.78;6151049;22;97576;-76
2021/11/30 09:16:31;;;;;;;9.57;6.07;;;;;;;4.04;59.85;98785.69;6150660;22;97137;-75
2021/11/30 09:18:57;;;;;;;8.17;5.37;;;;;;;4.13;59.51;98767.25;6177359;22;97000;-76
2021/11/30 09:21:24;;;;;;;8.53;5.73;;;;;;;4.13;60.16;98762.06;6125865;22;100544;-76
2021/11/30 09:23:54;;;;;;;7.23;4.90;;;;;;;4.13;59.90;98756.84;6151033;22;100322;-76
2021/11/30 09:26:19;;;;;;;9.27;5.47;;;;;;;4.30;59.42;98748.47;6124976;22;96617;-76
2021/11/30 09:28:48;;;;;;;9.17;5.80;;;;;;;4.36;59.52;98739.63;6127013;22;96974;-76
2021/11/30 09:31:15;;;;;;;9.93;6.27;;;;;;;4.35;nan;98732.75;6151208;22;100146;-75
2021/11/30 09:33:41;;;;;;;8.77;5.00;;;;;;;4.44;58.13;98717.69;6177170;22;98201;-75
2021/11/30 09:36:07;;;;;;;8.90;5.60;;;;;;;4.30;58.92;98715.59;6150296;22;96718;-75
2021/11/30 09:38:33;;;;;;;8.10;5.40;;;;;;;4.31;59.18;98712.06;6175942;22;96735;-75
2021/11/30 09:41:01;;;;;;;9.93;5.30;;;;;;;4.31;59.08;98699.09;6150405;22;97432;-75
2021/11/30 09:43:28;;;;;;;14.67;8.43;;;;;;;4.44;59.47;98694.31;6175102;22;98224;-76
2021/11/30 09:45:59;;;;;;;9.60;5.90;;;;;;;4.58;58.77;98682.59;6126706;22;97107;-77
2021/11/30 09:48:26;;;;;;;9.87;5.97;;;;;;;4.60;58.71;98675.59;6151745;22;96746;-76
2021/11/30 09:50:52;;;;;;;8.33;5.63;;;;;;;4.48;58.92;98669.06;6152156;22;97373;-75
2021/11/30 09:53:18;;;;;;;8.37;5.30;;;;;;;4.47;59.52;98651.78;6176981;22;97098;-75
2021/11/30 09:55:46;;;;;;;8.27;5.43;;;;;;;4.49;58.90;98649.97;6147820;22;97543;-74
2021/11/30 09:58:13;;;;;;;6.33;4.73;;;;;;;4.61;58.39;98638.28;6150451;22;96795;-75
2021/11/30 10:00:40;;;;;;;8.43;4.93;;;;;;;4.54;58.72;98637.69;6150939;22;100366;-75
2021/11/30 10:03:06;;;;;;;7.50;4.93;;;;;;;4.48;58.81;98617.09;6150169;22;100642;-75
2021/11/30 10:05:32;;;;;;;6.30;4.23;;;;;;;4.47;58.97;98620.59;6150910;22;97415;-74
2021/11/30 10:08:01;;;;;;;7.10;4.57;;;;;;;4.44;59.13;98592.13;6176072;22;96913;-74
2021/11/30 10:10:36;;;;;;;5.30;3.83;;;;;;;4.39;59.07;98596.63;6172465;22;97174;-78
2021/11/30 10:13:04;;;;;;;7.23;4.93;;;;;;;4.43;59.14;98582.66;6171434;22;100021;-75
2021/11/30 10:15:45;;;;;;;5.43;4.00;;;;;;;4.41;59.24;98572.28;6176473;22;96508;-75
2021/11/30 10:18:15;;;;;;;6.13;4.07;;;;;;;4.44;59.50;98563.53;6172597;22;97440;-75
2021/11/30 10:20:41;;;;;;;7.17;4.67;;;;;;;4.48;59.33;98553.00;6149022;22;98315;-74
2021/11/30 10:23:07;;;;;;;8.30;4.57;;;;;;;4.41;59.37;98550.66;6168922;22;97184;-74
2021/11/30 10:25:38;;;;;;;6.10;4.10;;;;;;;4.43;59.70;98535.88;6151627;22;96778;-77
2021/11/30 10:28:05;;;;;;;4.47;2.92;;;;;;;4.45;59.60;98537.53;6152202;22;96683;-76
2021/11/30 10:30:33;;;;;;;6.50;3.97;;;;;;;4.46;59.71;98513.22;6176475;22;100563;-75
2021/11/30 10:33:20;;;;;;;5.93;3.20;;;;;;;4.50;59.95;98506.97;6153152;22;99718;-74
2021/11/30 10:36:00;;;;;;;5.30;3.30;;;;;;;4.53;60.07;98495.63;6171066;22;97048;-74
2021/11/30 10:38:40;;;;;;;9.70;3.77;;;;;;;4.44;60.89;98476.03;6149576;22;97219;-75
2021/11/30 10:41:20;;;;;;;6.53;3.87;;;;;;;4.49;61.08;98470.69;6174539;22;97896;-76
2021/11/30 10:44:03;;;;;;;6.93;4.10;;;;;;;4.45;60.39;98462.16;6123834;22;99934;-75
2021/11/30 10:46:31;;;;;;;5.00;3.63;;;;;;;4.45;61.17;98450.91;6175790;22;96665;-74
2021/11/30 10:48:57;;;;;;;7.63;4.70;;;;;;;4.51;60.89;98440.31;6149542;22;96725;-74
2021/11/30 10:51:26;;;;;;;6.13;4.20;;;;;;;4.43;61.33;98430.19;6173566;22;97438;-73
2021/11/30 10:53:56;;;;;;;4.83;3.70;;;;;;;4.42;61.45;98427.63;6148207;22;97194;-74
2021/11/30 10:56:21;;;;;;;4.00;3.20;;;;;;;4.38;61.29;98411.34;6145958;22;96909;-73
2021/11/30 10:58:54;;;;;;;5.80;4.07;;;;;;;4.42;61.52;98409.44;6177115;22;97275;-73
2021/11/30 11:01:23;;;;;;;6.47;4.15;;;;;;;4.37;61.43;98396.66;6175105;22;98106;-74
2021/11/30 11:04:05;;;;;;;4.80;3.60;;;;;;;4.34;62.17;98395.94;6149745;22;98231;-74
2021/11/30 11:06:32;;;;;;;5.17;3.27;;;;;;;4.37;61.70;98386.28;6125414;22;97128;-73
2021/11/30 11:09:03;;;;;;;5.07;3.37;;;;;;;4.34;61.95;98372.56;6126209;22;97029;-73
2021/11/30 11:11:34;;;;;;;4.15;2.85;;;;;;;4.30;61.99;98371.81;6176358;22;98585;-73
2021/11/30 11:14:00;;;;;;;5.03;3.00;;;;;;;4.37;61.88;98367.25;6177616;22;97180;-74
2021/11/30 11:16:33;;;;;;;5.13;3.23;;;;;;;4.40;62.01;98354.97;6176026;22;96888;-73
2021/11/30 11:19:02;;;;;;;6.87;3.03;;;;;;;4.44;61.63;98348.72;6152302;22;96988;-74
2021/11/30 11:21:35;;;;;;;6.90;3.30;;;;;;;4.47;61.65;98347.78;6123157;22;99211;-72
2021/11/30 11:24:25;;;;;;;4.87;3.20;;;;;;;4.53;61.86;98340.56;6174284;22;100439;-76
2021/11/30 11:26:53;;;;;;;5.93;3.40;;;;;;;4.66;61.34;98325.31;6176965;22;96894;-74
2021/11/30 11:29:19;;;;;;;6.57;3.30;;;;;;;4.64;61.73;98316.75;6178789;22;96773;-74
2021/11/30 11:31:47;;;;;;;5.10;3.07;;;;;;;4.57;61.61;98320.50;6152592;22;99544;-75
2021/11/30 11:34:14;;;;;;;6.07;3.70;;;;;;;4.58;61.48;98300.56;6177092;22;98370;-73
2021/11/30 11:36:41;;;;;;;4.93;3.23;;;;;;;4.53;61.84;98290.34;6179310;22;96870;-74
2021/11/30 11:39:07;;;;;;;5.40;3.10;;;;;;;4.53;62.01;98286.00;6152075;22;96795;-75
2021/11/30 11:41:32;;;;;;;6.40;3.40;;;;;;;4.48;62.78;98274.97;6127356;22;100069;-75
2021/11/30 11:43:59;;;;;;;7.63;3.63;;;;;;;4.47;62.38;98264.63;6180696;22;96956;-75
2021/11/30 11:46:31;;;;;;;6.63;3.20;;;;;;;4.44;63.02;98254.38;6157009;22;96330;-74
2021/11/30 11:48:59;;;;;;;6.73;2.87;;;;;;;4.47;63.25;98251.63;6157863;22;96372;-74
2021/11/30 11:51:45;;;;;;;5.07;2.90;;;;;;;4.44;63.62;98250.00;6131929;22;99513;-74